sensor_id;sensor_type;location;lat;lon;timestamp;P1;durP1;ratioP1;P2;durP2;ratioP2
12768;SDS011;6448;48.916;8.990;2022-08-20T00:00:09;0.75;;;0.75;;
12768;SDS011;6448;48.916;8.990;2022-08-20T00:01:13;0.80;;;0.80;;
12768;SDS011;6448;48.916;8.990;2022-08-20T00:02:15;0.80;;;0.80;;
12768;SDS011;6448;48.916;8.990;2022-08-20T00:03:18;0.80;;;0.80;;
12768;SDS011;6448;48.916;8.990;2022-08-20T00:04:21;1.40;;;0.98;;
12768;SDS011;6448;48.916;8.990;2022-08-20T00:05:24;0.95;;;0.90;;
12768;SDS011;6448;48.916;8.990;2022-08-20T00:06:28;0.80;;;0.80;;
12768;SDS011;6448;48.916;8.990;2022-08-20T00:07:29;0.85;;;0.70;;
12768;SDS011;6448;48.916;8.990;2022-08-20T00:08:31;0.80;;;0.80;;
12768;SDS011;6448;48.916;8.990;2022-08-20T00:09:31;1.15;;;0.70;;
12768;SDS011;6448;48.916;8.990;2022-08-20T00:10:34;0.80;;;0.80;;
12768;SDS011;6448;48.916;8.990;2022-08-20T00:11:36;0.80;;;0.80;;
12768;SDS011;6448;48.916;8.990;2022-08-20T00:12:41;0.80;;;0.80;;
12768;SDS011;6448;48.916;8.990;2022-08-20T00:13:45;0.85;;;0.80;;
12768;SDS011;6448;48.916;8.990;2022-08-20T00:14:49;0.70;;;0.70;;
12768;SDS011;6448;48.916;8.990;2022-08-20T00:15:50;0.85;;;0.85;;
12768;SDS011;6448;48.916;8.990;2022-08-20T00:16:52;0.80;;;0.80;;
12768;SDS011;6448;48.916;8.990;2022-08-20T00:17:53;1.60;;;0.80;;
12768;SDS011;6448;48.916;8.990;2022-08-20T00:18:57;0.80;;;0.80;;
12768;SDS011;6448;48.916;8.990;2022-08-20T00:19:57;0.80;;;0.80;;
12768;SDS011;6448;48.916;8.990;2022-08-20T00:20:59;1.00;;;0.80;;
12768;SDS011;6448;48.916;8.990;2022-08-20T00:22:00;0.77;;;0.77;;
12768;SDS011;6448;48.916;8.990;2022-08-20T00:23:02;0.70;;;0.70;;
12768;SDS011;6448;48.916;8.990;2022-08-20T00:24:04;0.80;;;0.80;;
12768;SDS011;6448;48.916;8.990;2022-08-20T00:25:06;1.00;;;0.95;;
12768;SDS011;6448;48.916;8.990;2022-08-20T00:26:08;0.90;;;0.90;;
12768;SDS011;6448;48.916;8.990;2022-08-20T00:27:10;0.82;;;0.82;;
12768;SDS011;6448;48.916;8.990;2022-08-20T00:28:11;0.70;;;0.70;;
12768;SDS011;6448;48.916;8.990;2022-08-20T00:29:14;0.90;;;0.90;;
12768;SDS011;6448;48.916;8.990;2022-08-20T00:30:15;0.70;;;0.70;;
12768;SDS011;6448;48.916;8.990;2022-08-20T00:31:18;1.05;;;0.90;;
12768;SDS011;6448;48.916;8.990;2022-08-20T00:32:20;0.80;;;0.80;;
12768;SDS011;6448;48.916;8.990;2022-08-20T00:33:23;0.80;;;0.80;;
12768;SDS011;6448;48.916;8.990;2022-08-20T00:34:25;0.85;;;0.85;;
12768;SDS011;6448;48.916;8.990;2022-08-20T00:35:28;0.82;;;0.82;;
12768;SDS011;6448;48.916;8.990;2022-08-20T00:36:32;0.80;;;0.80;;
12768;SDS011;6448;48.916;8.990;2022-08-20T00:37:33;0.90;;;0.90;;
12768;SDS011;6448;48.916;8.990;2022-08-20T00:38:34;0.80;;;0.80;;
12768;SDS011;6448;48.916;8.990;2022-08-20T00:39:37;0.82;;;0.82;;
12768;SDS011;6448;48.916;8.990;2022-08-20T00:40:40;0.80;;;0.80;;
12768;SDS011;6448;48.916;8.990;2022-08-20T00:41:44;0.80;;;0.80;;
12768;SDS011;6448;48.916;8.990;2022-08-20T00:42:49;0.80;;;0.80;;
12768;SDS011;6448;48.916;8.990;2022-08-20T00:44:03;1.10;;;0.80;;
12768;SDS011;6448;48.916;8.990;2022-08-20T00:45:08;0.70;;;0.70;;
12768;SDS011;6448;48.916;8.990;2022-08-20T00:46:09;0.70;;;0.70;;
12768;SDS011;6448;48.916;8.990;2022-08-20T00:47:13;1.20;;;0.95;;
12768;SDS011;6448;48.916;8.990;2022-08-20T00:48:13;0.80;;;0.80;;
12768;SDS011;6448;48.916;8.990;2022-08-20T00:49:17;1.00;;;0.90;;
12768;SDS011;6448;48.916;8.990;2022-08-20T00:50:23;0.90;;;0.90;;
12768;SDS011;6448;48.916;8.990;2022-08-20T00:51:30;0.80;;;0.80;;
12768;SDS011;6448;48.916;8.990;2022-08-20T00:52:34;1.00;;;0.85;;
12768;SDS011;6448;48.916;8.990;2022-08-20T00:53:36;0.80;;;0.80;;
12768;SDS011;6448;48.916;8.990;2022-08-20T00:54:38;0.80;;;0.80;;
12768;SDS011;6448;48.916;8.990;2022-08-20T00:55:43;0.70;;;0.70;;
12768;SDS011;6448;48.916;8.990;2022-08-20T00:56:45;0.80;;;0.80;;
12768;SDS011;6448;48.916;8.990;2022-08-20T00:57:50;0.77;;;0.77;;
12768;SDS011;6448;48.916;8.990;2022-08-20T00:58:53;0.90;;;0.90;;
12768;SDS011;6448;48.916;8.990;2022-08-20T00:59:56;0.90;;;0.90;;
12768;SDS011;6448;48.916;8.990;2022-08-20T01:00:58;0.80;;;0.80;;
12768;SDS011;6448;48.916;8.990;2022-08-20T01:02:00;0.70;;;0.70;;
12768;SDS011;6448;48.916;8.990;2022-08-20T01:03:02;0.90;;;0.90;;
12768;SDS011;6448;48.916;8.990;2022-08-20T01:04:08;0.73;;;0.73;;
12768;SDS011;6448;48.916;8.990;2022-08-20T01:05:10;0.80;;;0.80;;
12768;SDS011;6448;48.916;8.990;2022-08-20T01:06:14;0.80;;;0.80;;
12768;SDS011;6448;48.916;8.990;2022-08-20T01:07:15;0.90;;;0.70;;
12768;SDS011;6448;48.916;8.990;2022-08-20T01:08:20;0.80;;;0.80;;
12768;SDS011;6448;48.916;8.990;2022-08-20T01:09:23;0.90;;;0.90;;
12768;SDS011;6448;48.916;8.990;2022-08-20T01:10:26;0.80;;;0.80;;
12768;SDS011;6448;48.916;8.990;2022-08-20T01:11:31;0.90;;;0.90;;
12768;SDS011;6448;48.916;8.990;2022-08-20T01:12:35;0.77;;;0.77;;
12768;SDS011;6448;48.916;8.990;2022-08-20T01:13:38;0.95;;;0.80;;
12768;SDS011;6448;48.916;8.990;2022-08-20T01:14:41;1.80;;;0.90;;
12768;SDS011;6448;48.916;8.990;2022-08-20T01:15:44;0.80;;;0.80;;
12768;SDS011;6448;48.916;8.990;2022-08-20T01:16:50;0.80;;;0.80;;
12768;SDS011;6448;48.916;8.990;2022-08-20T01:17:55;0.80;;;0.80;;
12768;SDS011;6448;48.916;8.990;2022-08-20T01:18:58;0.80;;;0.80;;
12768;SDS011;6448;48.916;8.990;2022-08-20T01:20:04;1.10;;;1.00;;
12768;SDS011;6448;48.916;8.990;2022-08-20T01:21:08;1.00;;;0.90;;
12768;SDS011;6448;48.916;8.990;2022-08-20T01:22:10;0.80;;;0.80;;
12768;SDS011;6448;48.916;8.990;2022-08-20T01:23:35;0.80;;;0.80;;
12768;SDS011;6448;48.916;8.990;2022-08-20T01:24:42;0.80;;;0.80;;
12768;SDS011;6448;48.916;8.990;2022-08-20T01:25:46;0.90;;;0.90;;
12768;SDS011;6448;48.916;8.990;2022-08-20T01:26:49;0.82;;;0.82;;
12768;SDS011;6448;48.916;8.990;2022-08-20T01:27:51;1.10;;;1.00;;
12768;SDS011;6448;48.916;8.990;2022-08-20T01:28:55;0.88;;;0.80;;
12768;SDS011;6448;48.916;8.990;2022-08-20T01:29:58;0.70;;;0.70;;
12768;SDS011;6448;48.916;8.990;2022-08-20T01:31:02;0.80;;;0.80;;
12768;SDS011;6448;48.916;8.990;2022-08-20T01:32:05;1.00;;;0.80;;
12768;SDS011;6448;48.916;8.990;2022-08-20T01:33:06;0.93;;;0.93;;
12768;SDS011;6448;48.916;8.990;2022-08-20T01:34:12;0.82;;;0.82;;
12768;SDS011;6448;48.916;8.990;2022-08-20T01:35:18;0.90;;;0.90;;
12768;SDS011;6448;48.916;8.990;2022-08-20T01:36:22;1.48;;;0.90;;
12768;SDS011;6448;48.916;8.990;2022-08-20T01:37:29;0.95;;;0.88;;
12768;SDS011;6448;48.916;8.990;2022-08-20T01:38:29;0.80;;;0.80;;
12768;SDS011;6448;48.916;8.990;2022-08-20T01:39:34;0.80;;;0.80;;
12768;SDS011;6448;48.916;8.990;2022-08-20T01:40:43;0.90;;;0.90;;
12768;SDS011;6448;48.916;8.990;2022-08-20T01:41:59;1.38;;;0.90;;
12768;SDS011;6448;48.916;8.990;2022-08-20T01:43:07;0.82;;;0.82;;
12768;SDS011;6448;48.916;8.990;2022-08-20T01:44:08;0.80;;;0.80;;
12768;SDS011;6448;48.916;8.990;2022-08-20T01:45:11;0.80;;;0.80;;
12768;SDS011;6448;48.916;8.990;2022-08-20T01:46:12;1.13;;;0.90;;
12768;SDS011;6448;48.916;8.990;2022-08-20T01:47:16;0.90;;;0.90;;
12768;SDS011;6448;48.916;8.990;2022-08-20T01:48:19;1.40;;;0.90;;
12768;SDS011;6448;48.916;8.990;2022-08-20T01:49:23;0.90;;;0.90;;
12768;SDS011;6448;48.916;8.990;2022-08-20T01:50:28;0.90;;;0.90;;
12768;SDS011;6448;48.916;8.990;2022-08-20T01:51:31;1.17;;;0.80;;
12768;SDS011;6448;48.916;8.990;2022-08-20T01:52:38;0.80;;;0.80;;
12768;SDS011;6448;48.916;8.990;2022-08-20T01:53:47;0.90;;;0.90;;
12768;SDS011;6448;48.916;8.990;2022-08-20T01:54:51;0.70;;;0.70;;
12768;SDS011;6448;48.916;8.990;2022-08-20T01:55:53;0.80;;;0.80;;
12768;SDS011;6448;48.916;8.990;2022-08-20T01:56:56;1.30;;;0.90;;
12768;SDS011;6448;48.916;8.990;2022-08-20T01:57:59;1.00;;;1.00;;
12768;SDS011;6448;48.916;8.990;2022-08-20T01:59:03;1.17;;;0.90;;
12768;SDS011;6448;48.916;8.990;2022-08-20T02:00:06;1.20;;;0.88;;
12768;SDS011;6448;48.916;8.990;2022-08-20T02:01:17;0.90;;;0.90;;
12768;SDS011;6448;48.916;8.990;2022-08-20T02:02:20;1.00;;;0.90;;
12768;SDS011;6448;48.916;8.990;2022-08-20T02:03:23;0.90;;;0.90;;
12768;SDS011;6448;48.916;8.990;2022-08-20T02:04:24;0.80;;;0.80;;
12768;SDS011;6448;48.916;8.990;2022-08-20T02:05:26;0.95;;;0.90;;
12768;SDS011;6448;48.916;8.990;2022-08-20T02:06:28;1.00;;;1.00;;
12768;SDS011;6448;48.916;8.990;2022-08-20T02:07:31;0.98;;;0.98;;
12768;SDS011;6448;48.916;8.990;2022-08-20T02:08:33;0.90;;;0.90;;
12768;SDS011;6448;48.916;8.990;2022-08-20T02:09:35;2.08;;;1.00;;
12768;SDS011;6448;48.916;8.990;2022-08-20T02:10:38;0.90;;;0.90;;
12768;SDS011;6448;48.916;8.990;2022-08-20T02:11:41;0.90;;;0.90;;
12768;SDS011;6448;48.916;8.990;2022-08-20T02:12:42;0.82;;;0.82;;
12768;SDS011;6448;48.916;8.990;2022-08-20T02:13:44;0.85;;;0.85;;
12768;SDS011;6448;48.916;8.990;2022-08-20T02:14:46;1.10;;;1.00;;
12768;SDS011;6448;48.916;8.990;2022-08-20T02:15:50;0.90;;;0.90;;
12768;SDS011;6448;48.916;8.990;2022-08-20T02:16:51;1.10;;;1.00;;
12768;SDS011;6448;48.916;8.990;2022-08-20T02:17:52;1.10;;;0.90;;
12768;SDS011;6448;48.916;8.990;2022-08-20T02:18:55;0.90;;;0.90;;
12768;SDS011;6448;48.916;8.990;2022-08-20T02:19:59;0.90;;;0.90;;
12768;SDS011;6448;48.916;8.990;2022-08-20T02:21:02;1.00;;;0.90;;
12768;SDS011;6448;48.916;8.990;2022-08-20T02:22:06;0.90;;;0.90;;
12768;SDS011;6448;48.916;8.990;2022-08-20T02:23:13;1.08;;;0.90;;
12768;SDS011;6448;48.916;8.990;2022-08-20T02:24:15;0.80;;;0.80;;
12768;SDS011;6448;48.916;8.990;2022-08-20T02:25:17;0.93;;;0.93;;
12768;SDS011;6448;48.916;8.990;2022-08-20T02:26:19;0.90;;;0.90;;
12768;SDS011;6448;48.916;8.990;2022-08-20T02:27:22;1.08;;;0.93;;
12768;SDS011;6448;48.916;8.990;2022-08-20T02:28:23;0.98;;;0.98;;
12768;SDS011;6448;48.916;8.990;2022-08-20T02:29:24;0.90;;;0.90;;
12768;SDS011;6448;48.916;8.990;2022-08-20T02:30:27;1.58;;;1.00;;
12768;SDS011;6448;48.916;8.990;2022-08-20T02:31:32;0.90;;;0.90;;
12768;SDS011;6448;48.916;8.990;2022-08-20T02:32:35;0.90;;;0.90;;
12768;SDS011;6448;48.916;8.990;2022-08-20T02:33:36;1.10;;;1.00;;
12768;SDS011;6448;48.916;8.990;2022-08-20T02:34:38;1.30;;;1.00;;
12768;SDS011;6448;48.916;8.990;2022-08-20T02:35:39;1.13;;;1.02;;
12768;SDS011;6448;48.916;8.990;2022-08-20T02:36:42;1.20;;;1.10;;
12768;SDS011;6448;48.916;8.990;2022-08-20T02:37:45;1.00;;;1.00;;
12768;SDS011;6448;48.916;8.990;2022-08-20T02:38:47;1.10;;;1.10;;
12768;SDS011;6448;48.916;8.990;2022-08-20T02:39:48;0.98;;;0.98;;
12768;SDS011;6448;48.916;8.990;2022-08-20T02:40:49;1.02;;;0.93;;
12768;SDS011;6448;48.916;8.990;2022-08-20T02:41:51;1.00;;;1.00;;
12768;SDS011;6448;48.916;8.990;2022-08-20T02:42:54;1.00;;;1.00;;
12768;SDS011;6448;48.916;8.990;2022-08-20T02:43:55;1.20;;;1.10;;
12768;SDS011;6448;48.916;8.990;2022-08-20T02:44:57;1.15;;;1.05;;
12768;SDS011;6448;48.916;8.990;2022-08-20T02:45:58;1.20;;;1.10;;
12768;SDS011;6448;48.916;8.990;2022-08-20T02:47:01;1.40;;;1.10;;
12768;SDS011;6448;48.916;8.990;2022-08-20T02:48:03;1.13;;;1.05;;
12768;SDS011;6448;48.916;8.990;2022-08-20T02:49:05;1.00;;;1.00;;
12768;SDS011;6448;48.916;8.990;2022-08-20T02:50:06;1.20;;;1.10;;
12768;SDS011;6448;48.916;8.990;2022-08-20T02:51:11;1.00;;;1.00;;
12768;SDS011;6448;48.916;8.990;2022-08-20T02:52:12;1.10;;;1.10;;
12768;SDS011;6448;48.916;8.990;2022-08-20T02:53:14;1.23;;;1.13;;
12768;SDS011;6448;48.916;8.990;2022-08-20T02:54:15;1.30;;;1.20;;
12768;SDS011;6448;48.916;8.990;2022-08-20T02:55:17;1.00;;;1.00;;
12768;SDS011;6448;48.916;8.990;2022-08-20T02:56:19;1.00;;;1.00;;
12768;SDS011;6448;48.916;8.990;2022-08-20T02:57:21;1.10;;;1.10;;
12768;SDS011;6448;48.916;8.990;2022-08-20T02:58:23;1.20;;;1.10;;
12768;SDS011;6448;48.916;8.990;2022-08-20T02:59:25;1.13;;;1.02;;
12768;SDS011;6448;48.916;8.990;2022-08-20T03:00:27;1.00;;;1.00;;
12768;SDS011;6448;48.916;8.990;2022-08-20T03:01:30;1.00;;;1.00;;
12768;SDS011;6448;48.916;8.990;2022-08-20T03:02:32;1.00;;;1.00;;
12768;SDS011;6448;48.916;8.990;2022-08-20T03:03:33;1.00;;;1.00;;
12768;SDS011;6448;48.916;8.990;2022-08-20T03:04:35;1.00;;;1.00;;
12768;SDS011;6448;48.916;8.990;2022-08-20T03:05:36;1.08;;;1.08;;
12768;SDS011;6448;48.916;8.990;2022-08-20T03:06:39;1.05;;;1.00;;
12768;SDS011;6448;48.916;8.990;2022-08-20T03:07:41;1.23;;;1.10;;
12768;SDS011;6448;48.916;8.990;2022-08-20T03:08:43;1.10;;;1.10;;
12768;SDS011;6448;48.916;8.990;2022-08-20T03:09:44;0.98;;;0.98;;
12768;SDS011;6448;48.916;8.990;2022-08-20T03:10:46;1.20;;;1.10;;
12768;SDS011;6448;48.916;8.990;2022-08-20T03:11:47;1.27;;;1.17;;
12768;SDS011;6448;48.916;8.990;2022-08-20T03:12:50;1.20;;;1.10;;
12768;SDS011;6448;48.916;8.990;2022-08-20T03:13:53;1.27;;;1.17;;
12768;SDS011;6448;48.916;8.990;2022-08-20T03:14:55;1.10;;;1.10;;
12768;SDS011;6448;48.916;8.990;2022-08-20T03:15:56;1.30;;;1.20;;
12768;SDS011;6448;48.916;8.990;2022-08-20T03:17:00;1.08;;;1.00;;
12768;SDS011;6448;48.916;8.990;2022-08-20T03:18:01;1.30;;;1.13;;
12768;SDS011;6448;48.916;8.990;2022-08-20T03:19:03;1.40;;;1.30;;
12768;SDS011;6448;48.916;8.990;2022-08-20T03:20:04;1.27;;;1.17;;
12768;SDS011;6448;48.916;8.990;2022-08-20T03:21:07;1.20;;;1.20;;
12768;SDS011;6448;48.916;8.990;2022-08-20T03:22:08;1.10;;;1.10;;
12768;SDS011;6448;48.916;8.990;2022-08-20T03:23:10;1.10;;;1.02;;
12768;SDS011;6448;48.916;8.990;2022-08-20T03:24:12;1.40;;;1.30;;
12768;SDS011;6448;48.916;8.990;2022-08-20T03:25:14;1.27;;;1.17;;
12768;SDS011;6448;48.916;8.990;2022-08-20T03:26:15;1.23;;;1.13;;
12768;SDS011;6448;48.916;8.990;2022-08-20T03:27:17;1.20;;;1.20;;
12768;SDS011;6448;48.916;8.990;2022-08-20T03:28:17;1.77;;;1.13;;
12768;SDS011;6448;48.916;8.990;2022-08-20T03:29:20;1.27;;;1.20;;
12768;SDS011;6448;48.916;8.990;2022-08-20T03:30:22;1.30;;;1.20;;
12768;SDS011;6448;48.916;8.990;2022-08-20T03:31:25;1.30;;;1.17;;
12768;SDS011;6448;48.916;8.990;2022-08-20T03:32:27;1.10;;;1.10;;
12768;SDS011;6448;48.916;8.990;2022-08-20T03:33:27;1.40;;;1.30;;
12768;SDS011;6448;48.916;8.990;2022-08-20T03:34:30;1.33;;;1.23;;
12768;SDS011;6448;48.916;8.990;2022-08-20T03:35:33;1.40;;;1.30;;
12768;SDS011;6448;48.916;8.990;2022-08-20T03:36:36;1.30;;;1.20;;
12768;SDS011;6448;48.916;8.990;2022-08-20T03:37:38;1.35;;;1.25;;
12768;SDS011;6448;48.916;8.990;2022-08-20T03:38:40;1.33;;;1.23;;
12768;SDS011;6448;48.916;8.990;2022-08-20T03:39:42;2.72;;;1.10;;
12768;SDS011;6448;48.916;8.990;2022-08-20T03:40:42;1.38;;;1.27;;
12768;SDS011;6448;48.916;8.990;2022-08-20T03:41:45;1.27;;;1.17;;
12768;SDS011;6448;48.916;8.990;2022-08-20T03:42:46;1.38;;;1.27;;
12768;SDS011;6448;48.916;8.990;2022-08-20T03:43:48;1.30;;;1.20;;
12768;SDS011;6448;48.916;8.990;2022-08-20T03:44:50;1.30;;;1.20;;
12768;SDS011;6448;48.916;8.990;2022-08-20T03:45:52;1.38;;;1.27;;
12768;SDS011;6448;48.916;8.990;2022-08-20T03:46:53;1.23;;;1.13;;
12768;SDS011;6448;48.916;8.990;2022-08-20T03:47:55;1.40;;;1.30;;
12768;SDS011;6448;48.916;8.990;2022-08-20T03:48:56;1.30;;;1.20;;
12768;SDS011;6448;48.916;8.990;2022-08-20T03:49:57;1.50;;;1.40;;
12768;SDS011;6448;48.916;8.990;2022-08-20T03:50:59;1.30;;;1.20;;
12768;SDS011;6448;48.916;8.990;2022-08-20T03:52:01;1.33;;;1.23;;
12768;SDS011;6448;48.916;8.990;2022-08-20T03:53:03;1.30;;;1.20;;
12768;SDS011;6448;48.916;8.990;2022-08-20T03:54:05;1.80;;;1.23;;
12768;SDS011;6448;48.916;8.990;2022-08-20T03:55:06;1.40;;;1.30;;
12768;SDS011;6448;48.916;8.990;2022-08-20T03:56:10;1.45;;;1.33;;
12768;SDS011;6448;48.916;8.990;2022-08-20T03:57:12;1.40;;;1.30;;
12768;SDS011;6448;48.916;8.990;2022-08-20T03:58:14;1.38;;;1.27;;
12768;SDS011;6448;48.916;8.990;2022-08-20T03:59:17;1.40;;;1.30;;
12768;SDS011;6448;48.916;8.990;2022-08-20T04:00:22;1.50;;;1.40;;
12768;SDS011;6448;48.916;8.990;2022-08-20T04:01:25;1.35;;;1.25;;
12768;SDS011;6448;48.916;8.990;2022-08-20T04:02:27;1.40;;;1.30;;
12768;SDS011;6448;48.916;8.990;2022-08-20T04:03:29;1.30;;;1.20;;
12768;SDS011;6448;48.916;8.990;2022-08-20T04:04:29;1.60;;;1.50;;
12768;SDS011;6448;48.916;8.990;2022-08-20T04:05:31;1.40;;;1.30;;
12768;SDS011;6448;48.916;8.990;2022-08-20T04:06:32;1.60;;;1.50;;
12768;SDS011;6448;48.916;8.990;2022-08-20T04:07:34;1.45;;;1.35;;
12768;SDS011;6448;48.916;8.990;2022-08-20T04:08:37;1.50;;;1.40;;
12768;SDS011;6448;48.916;8.990;2022-08-20T04:09:39;1.50;;;1.40;;
12768;SDS011;6448;48.916;8.990;2022-08-20T04:10:40;1.60;;;1.50;;
12768;SDS011;6448;48.916;8.990;2022-08-20T04:11:42;1.50;;;1.40;;
12768;SDS011;6448;48.916;8.990;2022-08-20T04:12:43;1.50;;;1.40;;
12768;SDS011;6448;48.916;8.990;2022-08-20T04:13:45;1.38;;;1.27;;
12768;SDS011;6448;48.916;8.990;2022-08-20T04:14:46;1.40;;;1.30;;
12768;SDS011;6448;48.916;8.990;2022-08-20T04:15:49;1.50;;;1.40;;
12768;SDS011;6448;48.916;8.990;2022-08-20T04:16:54;1.40;;;1.30;;
12768;SDS011;6448;48.916;8.990;2022-08-20T04:17:55;1.50;;;1.40;;
12768;SDS011;6448;48.916;8.990;2022-08-20T04:18:56;1.55;;;1.45;;
12768;SDS011;6448;48.916;8.990;2022-08-20T04:20:00;1.50;;;1.33;;
12768;SDS011;6448;48.916;8.990;2022-08-20T04:21:02;1.55;;;1.45;;
12768;SDS011;6448;48.916;8.990;2022-08-20T04:22:05;1.50;;;1.40;;
12768;SDS011;6448;48.916;8.990;2022-08-20T04:23:07;1.70;;;1.60;;
12768;SDS011;6448;48.916;8.990;2022-08-20T04:24:09;1.50;;;1.40;;
12768;SDS011;6448;48.916;8.990;2022-08-20T04:25:10;1.70;;;1.60;;
12768;SDS011;6448;48.916;8.990;2022-08-20T04:26:12;1.80;;;1.50;;
12768;SDS011;6448;48.916;8.990;2022-08-20T04:27:13;1.60;;;1.50;;
12768;SDS011;6448;48.916;8.990;2022-08-20T04:28:15;1.60;;;1.50;;
12768;SDS011;6448;48.916;8.990;2022-08-20T04:29:23;1.70;;;1.60;;
12768;SDS011;6448;48.916;8.990;2022-08-20T04:30:26;1.70;;;1.60;;
12768;SDS011;6448;48.916;8.990;2022-08-20T04:31:29;1.50;;;1.40;;
12768;SDS011;6448;48.916;8.990;2022-08-20T04:32:33;1.45;;;1.35;;
12768;SDS011;6448;48.916;8.990;2022-08-20T04:33:35;1.50;;;1.40;;
12768;SDS011;6448;48.916;8.990;2022-08-20T04:34:37;1.60;;;1.50;;
12768;SDS011;6448;48.916;8.990;2022-08-20T04:35:39;1.70;;;1.60;;
12768;SDS011;6448;48.916;8.990;2022-08-20T04:36:41;1.60;;;1.50;;
12768;SDS011;6448;48.916;8.990;2022-08-20T04:37:42;1.60;;;1.50;;
12768;SDS011;6448;48.916;8.990;2022-08-20T04:38:46;1.60;;;1.50;;
12768;SDS011;6448;48.916;8.990;2022-08-20T04:39:47;1.60;;;1.50;;
12768;SDS011;6448;48.916;8.990;2022-08-20T04:41:03;1.50;;;1.40;;
12768;SDS011;6448;48.916;8.990;2022-08-20T04:42:05;1.60;;;1.50;;
12768;SDS011;6448;48.916;8.990;2022-08-20T04:43:06;1.60;;;1.50;;
12768;SDS011;6448;48.916;8.990;2022-08-20T04:44:07;1.60;;;1.50;;
12768;SDS011;6448;48.916;8.990;2022-08-20T04:45:10;1.50;;;1.40;;
12768;SDS011;6448;48.916;8.990;2022-08-20T04:46:10;1.70;;;1.60;;
12768;SDS011;6448;48.916;8.990;2022-08-20T04:47:18;1.60;;;1.50;;
12768;SDS011;6448;48.916;8.990;2022-08-20T04:48:20;1.58;;;1.48;;
12768;SDS011;6448;48.916;8.990;2022-08-20T04:49:24;1.57;;;1.47;;
12768;SDS011;6448;48.916;8.990;2022-08-20T04:50:25;1.70;;;1.60;;
12768;SDS011;6448;48.916;8.990;2022-08-20T04:51:27;1.70;;;1.60;;
12768;SDS011;6448;48.916;8.990;2022-08-20T04:52:29;1.50;;;1.40;;
12768;SDS011;6448;48.916;8.990;2022-08-20T04:53:32;1.60;;;1.50;;
12768;SDS011;6448;48.916;8.990;2022-08-20T04:54:34;1.80;;;1.70;;
12768;SDS011;6448;48.916;8.990;2022-08-20T04:55:36;1.80;;;1.70;;
12768;SDS011;6448;48.916;8.990;2022-08-20T04:56:40;1.70;;;1.60;;
12768;SDS011;6448;48.916;8.990;2022-08-20T04:57:41;1.63;;;1.52;;
12768;SDS011;6448;48.916;8.990;2022-08-20T04:58:44;1.50;;;1.40;;
12768;SDS011;6448;48.916;8.990;2022-08-20T04:59:50;1.60;;;1.50;;
12768;SDS011;6448;48.916;8.990;2022-08-20T05:00:52;1.70;;;1.60;;
12768;SDS011;6448;48.916;8.990;2022-08-20T05:01:55;1.50;;;1.40;;
12768;SDS011;6448;48.916;8.990;2022-08-20T05:02:57;1.80;;;1.70;;
12768;SDS011;6448;48.916;8.990;2022-08-20T05:03:59;1.60;;;1.50;;
12768;SDS011;6448;48.916;8.990;2022-08-20T05:05:01;1.73;;;1.63;;
12768;SDS011;6448;48.916;8.990;2022-08-20T05:06:03;1.65;;;1.55;;
12768;SDS011;6448;48.916;8.990;2022-08-20T05:07:06;1.75;;;1.65;;
12768;SDS011;6448;48.916;8.990;2022-08-20T05:08:07;1.60;;;1.50;;
12768;SDS011;6448;48.916;8.990;2022-08-20T05:09:09;1.65;;;1.55;;
12768;SDS011;6448;48.916;8.990;2022-08-20T05:10:10;1.90;;;1.80;;
12768;SDS011;6448;48.916;8.990;2022-08-20T05:11:14;1.73;;;1.63;;
12768;SDS011;6448;48.916;8.990;2022-08-20T05:12:16;1.90;;;1.80;;
12768;SDS011;6448;48.916;8.990;2022-08-20T05:13:18;1.83;;;1.73;;
12768;SDS011;6448;48.916;8.990;2022-08-20T05:14:20;1.90;;;1.80;;
12768;SDS011;6448;48.916;8.990;2022-08-20T05:15:21;1.55;;;1.45;;
12768;SDS011;6448;48.916;8.990;2022-08-20T05:16:25;1.60;;;1.50;;
12768;SDS011;6448;48.916;8.990;2022-08-20T05:17:25;2.10;;;1.90;;
12768;SDS011;6448;48.916;8.990;2022-08-20T05:18:30;1.70;;;1.60;;
12768;SDS011;6448;48.916;8.990;2022-08-20T05:19:33;1.77;;;1.67;;
12768;SDS011;6448;48.916;8.990;2022-08-20T05:20:37;1.73;;;1.63;;
12768;SDS011;6448;48.916;8.990;2022-08-20T05:21:40;1.63;;;1.52;;
12768;SDS011;6448;48.916;8.990;2022-08-20T05:22:41;1.80;;;1.70;;
12768;SDS011;6448;48.916;8.990;2022-08-20T05:23:43;1.70;;;1.60;;
12768;SDS011;6448;48.916;8.990;2022-08-20T05:24:44;1.70;;;1.60;;
12768;SDS011;6448;48.916;8.990;2022-08-20T05:25:46;1.90;;;1.80;;
12768;SDS011;6448;48.916;8.990;2022-08-20T05:26:50;1.70;;;1.60;;
12768;SDS011;6448;48.916;8.990;2022-08-20T05:27:55;1.90;;;1.80;;
12768;SDS011;6448;48.916;8.990;2022-08-20T05:28:59;1.80;;;1.70;;
12768;SDS011;6448;48.916;8.990;2022-08-20T05:30:04;1.70;;;1.60;;
12768;SDS011;6448;48.916;8.990;2022-08-20T05:31:07;1.80;;;1.70;;
12768;SDS011;6448;48.916;8.990;2022-08-20T05:32:08;2.50;;;1.65;;
12768;SDS011;6448;48.916;8.990;2022-08-20T05:33:11;1.83;;;1.73;;
12768;SDS011;6448;48.916;8.990;2022-08-20T05:34:17;1.73;;;1.63;;
12768;SDS011;6448;48.916;8.990;2022-08-20T05:35:18;1.70;;;1.60;;
12768;SDS011;6448;48.916;8.990;2022-08-20T05:36:19;1.58;;;1.48;;
12768;SDS011;6448;48.916;8.990;2022-08-20T05:37:21;1.60;;;1.50;;
12768;SDS011;6448;48.916;8.990;2022-08-20T05:38:23;1.70;;;1.60;;
12768;SDS011;6448;48.916;8.990;2022-08-20T05:39:27;1.60;;;1.50;;
12768;SDS011;6448;48.916;8.990;2022-08-20T05:40:27;1.70;;;1.60;;
12768;SDS011;6448;48.916;8.990;2022-08-20T05:41:29;1.80;;;1.70;;
12768;SDS011;6448;48.916;8.990;2022-08-20T05:42:30;1.50;;;1.40;;
12768;SDS011;6448;48.916;8.990;2022-08-20T05:43:32;1.73;;;1.63;;
12768;SDS011;6448;48.916;8.990;2022-08-20T05:44:34;1.80;;;1.70;;
12768;SDS011;6448;48.916;8.990;2022-08-20T05:45:37;1.67;;;1.58;;
12768;SDS011;6448;48.916;8.990;2022-08-20T05:46:40;1.65;;;1.55;;
12768;SDS011;6448;48.916;8.990;2022-08-20T05:47:43;1.63;;;1.52;;
12768;SDS011;6448;48.916;8.990;2022-08-20T05:48:45;2.05;;;1.85;;
12768;SDS011;6448;48.916;8.990;2022-08-20T05:49:47;1.92;;;1.83;;
12768;SDS011;6448;48.916;8.990;2022-08-20T05:50:49;1.70;;;1.60;;
12768;SDS011;6448;48.916;8.990;2022-08-20T05:51:51;1.80;;;1.70;;
12768;SDS011;6448;48.916;8.990;2022-08-20T05:52:52;1.80;;;1.70;;
12768;SDS011;6448;48.916;8.990;2022-08-20T05:53:53;1.80;;;1.70;;
12768;SDS011;6448;48.916;8.990;2022-08-20T05:54:56;1.90;;;1.80;;
12768;SDS011;6448;48.916;8.990;2022-08-20T05:55:57;1.70;;;1.60;;
12768;SDS011;6448;48.916;8.990;2022-08-20T05:57:00;1.77;;;1.65;;
12768;SDS011;6448;48.916;8.990;2022-08-20T05:58:01;2.15;;;1.80;;
12768;SDS011;6448;48.916;8.990;2022-08-20T05:59:05;1.70;;;1.60;;
12768;SDS011;6448;48.916;8.990;2022-08-20T06:00:08;1.67;;;1.58;;
12768;SDS011;6448;48.916;8.990;2022-08-20T06:01:12;1.80;;;1.70;;
12768;SDS011;6448;48.916;8.990;2022-08-20T06:02:13;1.80;;;1.70;;
12768;SDS011;6448;48.916;8.990;2022-08-20T06:03:32;2.10;;;1.80;;
12768;SDS011;6448;48.916;8.990;2022-08-20T06:04:53;1.80;;;1.70;;
12768;SDS011;6448;48.916;8.990;2022-08-20T06:05:55;1.83;;;1.73;;
12768;SDS011;6448;48.916;8.990;2022-08-20T06:06:57;1.90;;;1.80;;
12768;SDS011;6448;48.916;8.990;2022-08-20T06:08:03;1.90;;;1.80;;
12768;SDS011;6448;48.916;8.990;2022-08-20T06:09:04;1.80;;;1.70;;
12768;SDS011;6448;48.916;8.990;2022-08-20T06:10:07;1.88;;;1.77;;
12768;SDS011;6448;48.916;8.990;2022-08-20T06:11:10;2.00;;;1.60;;
12768;SDS011;6448;48.916;8.990;2022-08-20T06:12:11;1.83;;;1.73;;
12768;SDS011;6448;48.916;8.990;2022-08-20T06:13:13;1.95;;;1.70;;
12768;SDS011;6448;48.916;8.990;2022-08-20T06:14:13;1.80;;;1.70;;
12768;SDS011;6448;48.916;8.990;2022-08-20T06:15:16;2.05;;;1.85;;
12768;SDS011;6448;48.916;8.990;2022-08-20T06:16:18;1.77;;;1.67;;
12768;SDS011;6448;48.916;8.990;2022-08-20T06:17:19;1.98;;;1.88;;
12768;SDS011;6448;48.916;8.990;2022-08-20T06:18:21;2.17;;;2.00;;
12768;SDS011;6448;48.916;8.990;2022-08-20T06:19:23;2.03;;;1.92;;
12768;SDS011;6448;48.916;8.990;2022-08-20T06:20:26;1.98;;;1.88;;
12768;SDS011;6448;48.916;8.990;2022-08-20T06:21:28;2.00;;;1.90;;
12768;SDS011;6448;48.916;8.990;2022-08-20T06:22:29;1.92;;;1.83;;
12768;SDS011;6448;48.916;8.990;2022-08-20T06:23:30;2.03;;;1.92;;